Darstellungsparameter: Aktuell verwendete Einstellungen:
Skalierung der Graphiken ... ?
xyx+y,   Skalierungsfaktor:      Skalierung: Modus: x, Faktor: 1
Darstellungszeitraum ... ?
Vom - - bis: - -   Zeitraum: 22.04.2015 - 22.04.2015
Min/Max/Avg-Anzeige ... ?
Zeige MMA aktuell
Zeige MMA Monat
Zeige MMA alles
Zeige --A aktuell
Zeige --A Monat
Zeige --A alles
Keine MMA-Anzeige
MMA:
Minimum Maximum Average (ber die Originaldaten)
MMA-Basis: 22.04.2015 - 22.04.2015
Quicknavigation für Darstellung... ?
Tage:      1T, 2T, 3T, 5T -1T -2T -3T -5T +1T +2T +3T +5T
Wochen: 1W, 2W, 3W -1W -2W -3W +1W +2W +3W
Monate: 1M, 3M, 6M -1M -3M -6M +1M +3M +6M
Jahre:    1J, 3J, 5J, 10J -1J -3J -5J -10J +1J +3J +5J +10J
Nutze für die Darstellung ... ?
Originaldaten oder Mittelwerte auf ...
Stundenbasis Tagesbasis Wochenbasis
Monatsbasis Jahresbasis      Datenbasis: Original-Daten
Darstellen als:
Statistik (Auto) Statistik J:M      Darstellung:
Zur Graphik,    zurück zur Übersicht aller Sensoren.
 
Tabellarische Datenbersicht: ?
 
Sensor: Nr:Datum:Temp:Abs-Feuchte:Windchill:Wind:
Aussen-T/F 1 22-04-2015 00:00:00 11.5 C 6.51 g/m*3 11.5 C 6.4 km/h
2 22-04-2015 00:05:00 11.5 C 6.61 g/m*3 11.5 C 4.8 km/h
3 22-04-2015 00:10:00 11.4 C 6.57 g/m*3 11.4 C 3.2 km/h
4 22-04-2015 00:15:00 11.4 C 6.67 g/m*3 11.4 C 1.6 km/h
5 22-04-2015 00:20:00 11.4 C 6.88 g/m*3 11.4 C 1.6 km/h
6 22-04-2015 00:25:00 11.3 C 6.73 g/m*3 11.3 C 4.8 km/h
7 22-04-2015 00:30:00 11.1 C 6.75 g/m*3 11.1 C 0 km/h
8 22-04-2015 00:35:00 11.1 C 6.75 g/m*3 11.1 C 3.2 km/h
9 22-04-2015 00:40:00 10.9 C 6.76 g/m*3 10.9 C 1.6 km/h
10 22-04-2015 00:45:00 10.8 C 6.72 g/m*3 10.8 C 4.8 km/h
11 22-04-2015 00:50:00 10.8 C 6.72 g/m*3 10.8 C 4.8 km/h
12 22-04-2015 00:55:00 10.8 C 6.62 g/m*3 10.8 C 3.2 km/h
13 22-04-2015 01:00:00 10.7 C 6.88 g/m*3 10.7 C 3.2 km/h
14 22-04-2015 01:05:00 10.6 C 6.93 g/m*3 10.06 C 6.4 km/h
15 22-04-2015 01:10:00 10.5 C 6.98 g/m*3 10.5 C 1.6 km/h
16 22-04-2015 01:15:00 10.5 C 6.79 g/m*3 10.5 C 3.2 km/h
17 22-04-2015 01:20:00 10.5 C 6.98 g/m*3 10.5 C 3.2 km/h
18 22-04-2015 01:25:00 10.5 C 6.98 g/m*3 10.5 C 4.8 km/h
19 22-04-2015 01:30:00 10.4 C 6.94 g/m*3 10.4 C 4.8 km/h
20 22-04-2015 01:35:00 10.4 C 7.04 g/m*3 10.4 C 3.2 km/h
21 22-04-2015 01:40:00 10.4 C 7.04 g/m*3 10.4 C 4.8 km/h
22 22-04-2015 01:45:00 10.3 C 6.99 g/m*3 10.3 C 3.2 km/h
23 22-04-2015 01:50:00 10.3 C 7.09 g/m*3 10.3 C 3.2 km/h
24 22-04-2015 01:55:00 10.4 C 7.04 g/m*3 10.4 C 3.2 km/h
25 22-04-2015 02:00:00 10.3 C 6.99 g/m*3 10.3 C 1.6 km/h
Sensor: Nr:Datum:Temp:Abs-Feuchte:Windchill:Wind:
Aussen-T/F 26 22-04-2015 02:05:00 10.3 C 6.99 g/m*3 10.3 C 1.6 km/h
27 22-04-2015 02:10:00 10.2 C 7.04 g/m*3 10.2 C 3.2 km/h
28 22-04-2015 02:15:00 10.2 C 7.04 g/m*3 10.2 C 1.6 km/h
29 22-04-2015 02:20:00 10.2 C 7.04 g/m*3 9.6 C 6.4 km/h
30 22-04-2015 02:25:00 10.1 C 7 g/m*3 10.1 C 1.6 km/h
31 22-04-2015 02:30:00 10 C 7.05 g/m*3 10 C 1.6 km/h
32 22-04-2015 02:35:00 9.9 C 6.91 g/m*3 9.25 C 6.4 km/h
33 22-04-2015 02:40:00 9.9 C 6.91 g/m*3 9.9 C 4.8 km/h
34 22-04-2015 02:45:00 10 C 6.86 g/m*3 10 C 1.6 km/h
35 22-04-2015 02:50:00 9.9 C 6.91 g/m*3 9.9 C 4.8 km/h
36 22-04-2015 02:55:00 9.6 C 6.87 g/m*3 9.6 C 4.8 km/h
37 22-04-2015 03:00:00 9.4 C 6.78 g/m*3 9.4 C 4.8 km/h
38 22-04-2015 03:05:00 9.3 C 6.74 g/m*3 9.3 C 3.2 km/h
39 22-04-2015 03:10:00 9.2 C 6.79 g/m*3 9.2 C 3.2 km/h
40 22-04-2015 03:15:00 9.1 C 6.74 g/m*3 9.1 C 4.8 km/h
41 22-04-2015 03:20:00 9 C 6.7 g/m*3 9 C 3.2 km/h
42 22-04-2015 03:25:00 8.9 C 6.66 g/m*3 8.9 C 3.2 km/h
43 22-04-2015 03:30:00 8.9 C 6.66 g/m*3 8.9 C 3.2 km/h
44 22-04-2015 03:35:00 9 C 6.61 g/m*3 7.81 C 8.1 km/h
45 22-04-2015 03:40:00 9.3 C 6.56 g/m*3 9.3 C 4.8 km/h
46 22-04-2015 03:45:00 9.4 C 6.6 g/m*3 7.97 C 9.7 km/h
47 22-04-2015 03:50:00 9.6 C 6.6 g/m*3 9.6 C 4.8 km/h
48 22-04-2015 03:55:00 9.4 C 6.6 g/m*3 8.68 C 6.4 km/h
49 22-04-2015 04:00:00 9.2 C 6.61 g/m*3 9.2 C 1.6 km/h
50 22-04-2015 04:05:00 8.9 C 6.57 g/m*3 8.9 C 3.2 km/h
Sensor: Nr:Datum:Temp:Abs-Feuchte:Windchill:Wind:
Aussen-T/F 51 22-04-2015 04:10:00 8.9 C 6.57 g/m*3 7.09 C 11.3 km/h
52 22-04-2015 04:15:00 8.8 C 6.53 g/m*3 8.8 C 3.2 km/h
53 22-04-2015 04:20:00 8.6 C 6.53 g/m*3 8.6 C 4.8 km/h
54 22-04-2015 04:25:00 8.6 C 6.62 g/m*3 7.34 C 8.1 km/h
55 22-04-2015 04:30:00 8.5 C 6.57 g/m*3 8.5 C 3.2 km/h
56 22-04-2015 04:35:00 8.4 C 6.53 g/m*3 8.4 C 1.6 km/h
57 22-04-2015 04:40:00 8.2 C 6.53 g/m*3 6.87 C 8.1 km/h
58 22-04-2015 04:45:00 8.2 C 6.62 g/m*3 8.2 C 4.8 km/h
59 22-04-2015 04:50:00 8.1 C 6.57 g/m*3 8.1 C 4.8 km/h
60 22-04-2015 04:55:00 7.9 C 6.57 g/m*3 7.9 C 3.2 km/h
61 22-04-2015 05:00:00 7.8 C 6.53 g/m*3 7.8 C 1.6 km/h
62 22-04-2015 05:05:00 7.7 C 6.57 g/m*3 5.38 C 12.9 km/h
63 22-04-2015 05:10:00 7.7 C 6.65 g/m*3 5.38 C 12.9 km/h
64 22-04-2015 05:15:00 7.8 C 6.61 g/m*3 6.06 C 9.7 km/h
65 22-04-2015 05:20:00 7.8 C 6.61 g/m*3 5.77 C 11.3 km/h
66 22-04-2015 05:25:00 7.8 C 6.61 g/m*3 7.8 C 3.2 km/h
67 22-04-2015 05:30:00 7.6 C 6.53 g/m*3 7.6 C 1.6 km/h
68 22-04-2015 05:35:00 7.3 C 6.48 g/m*3 7.3 C 3.2 km/h
69 22-04-2015 05:40:00 7.1 C 6.55 g/m*3 7.1 C 4.8 km/h
70 22-04-2015 05:45:00 7.1 C 6.55 g/m*3 5.58 C 8.1 km/h
71 22-04-2015 05:50:00 7.1 C 6.63 g/m*3 5.58 C 8.1 km/h
72 22-04-2015 05:55:00 7.1 C 6.63 g/m*3 7.1 C 4.8 km/h
73 22-04-2015 06:00:00 7.1 C 6.63 g/m*3 7.1 C 3.2 km/h
74 22-04-2015 06:05:00 6.9 C 6.54 g/m*3 6.9 C 3.2 km/h
75 22-04-2015 06:10:00 6.8 C 6.5 g/m*3 6.8 C 4.8 km/h
Sensor: Nr:Datum:Temp:Abs-Feuchte:Windchill:Wind:
Aussen-T/F 76 22-04-2015 06:15:00 6.8 C 6.58 g/m*3 6.8 C 1.6 km/h
77 22-04-2015 06:20:00 6.7 C 6.61 g/m*3 5.56 C 6.4 km/h
78 22-04-2015 06:25:00 6.7 C 6.61 g/m*3 6.7 C 1.6 km/h
79 22-04-2015 06:30:00 6.7 C 6.61 g/m*3 6.7 C 3.2 km/h
80 22-04-2015 06:35:00 6.6 C 6.57 g/m*3 5.44 C 6.4 km/h
81 22-04-2015 06:40:00 6.7 C 6.61 g/m*3 5.56 C 6.4 km/h
82 22-04-2015 06:45:00 6.6 C 6.57 g/m*3 6.6 C 1.6 km/h
83 22-04-2015 06:50:00 6.4 C 6.48 g/m*3 6.4 C 1.6 km/h
84 22-04-2015 06:55:00 6.3 C 6.51 g/m*3 6.3 C 3.2 km/h
85 22-04-2015 07:00:00 6.3 C 6.51 g/m*3 4.64 C 8.1 km/h
86 22-04-2015 07:05:00 6.3 C 6.51 g/m*3 6.3 C 4.8 km/h
87 22-04-2015 07:10:00 6.4 C 6.56 g/m*3 4.75 C 8.1 km/h
88 22-04-2015 07:15:00 6.4 C 6.56 g/m*3 6.4 C 4.8 km/h
89 22-04-2015 07:20:00 6.4 C 6.56 g/m*3 3.8 C 12.9 km/h
90 22-04-2015 07:25:00 6.4 C 6.56 g/m*3 5.21 C 6.4 km/h
91 22-04-2015 07:30:00 6.4 C 6.56 g/m*3 5.21 C 6.4 km/h
92 22-04-2015 07:35:00 6.5 C 6.6 g/m*3 6.5 C 4.8 km/h
93 22-04-2015 07:40:00 6.5 C 6.52 g/m*3 6.5 C 1.6 km/h
94 22-04-2015 07:45:00 6.5 C 6.52 g/m*3 6.5 C 0 km/h
95 22-04-2015 07:50:00 6.4 C 6.56 g/m*3 6.4 C 3.2 km/h
96 22-04-2015 07:55:00 6.4 C 6.56 g/m*3 6.4 C 1.6 km/h
97 22-04-2015 08:00:00 6.4 C 6.56 g/m*3 6.4 C 0 km/h
98 22-04-2015 08:05:00 6.4 C 6.56 g/m*3 6.4 C 1.6 km/h
99 22-04-2015 08:10:00 6.4 C 6.56 g/m*3 6.4 C 4.8 km/h
100 22-04-2015 08:15:00 6.5 C 6.6 g/m*3 6.5 C 1.6 km/h
Sensor: Nr:Datum:Temp:Abs-Feuchte:Windchill:Wind:
Aussen-T/F 101 22-04-2015 08:20:00 6.6 C 6.64 g/m*3 6.6 C 1.6 km/h
102 22-04-2015 08:25:00 6.6 C 6.57 g/m*3 6.6 C 3.2 km/h
103 22-04-2015 08:30:00 6.7 C 6.61 g/m*3 6.7 C 3.2 km/h
104 22-04-2015 08:35:00 6.7 C 6.61 g/m*3 6.7 C 3.2 km/h
105 22-04-2015 08:40:00 6.8 C 6.65 g/m*3 5.22 C 8.1 km/h
106 22-04-2015 08:45:00 6.9 C 6.62 g/m*3 4.99 C 9.7 km/h
107 22-04-2015 08:50:00 7 C 6.66 g/m*3 5.9 C 6.4 km/h
108 22-04-2015 08:55:00 7.1 C 6.63 g/m*3 6.02 C 6.4 km/h
109 22-04-2015 09:00:00 7.3 C 6.64 g/m*3 5.47 C 9.7 km/h
110 22-04-2015 09:05:00 7.4 C 6.6 g/m*3 5.28 C 11.3 km/h
111 22-04-2015 09:10:00 7.6 C 6.61 g/m*3 6.16 C 8.1 km/h
112 22-04-2015 09:15:00 7.6 C 6.61 g/m*3 7.6 C 4.8 km/h
113 22-04-2015 09:20:00 7.7 C 6.65 g/m*3 5.65 C 11.3 km/h
114 22-04-2015 09:25:00 7.8 C 6.69 g/m*3 5.51 C 12.9 km/h
115 22-04-2015 09:30:00 7.8 C 6.61 g/m*3 7.8 C 4.8 km/h
116 22-04-2015 09:35:00 7.8 C 6.69 g/m*3 6.4 C 8.1 km/h
117 22-04-2015 09:40:00 7.9 C 6.74 g/m*3 5.89 C 11.3 km/h
118 22-04-2015 09:45:00 8 C 6.61 g/m*3 6.64 C 8.1 km/h
119 22-04-2015 09:50:00 8 C 6.61 g/m*3 6.3 C 9.7 km/h
120 22-04-2015 09:55:00 8.1 C 6.74 g/m*3 6.75 C 8.1 km/h
121 22-04-2015 10:00:00 8.2 C 6.7 g/m*3 6.54 C 9.7 km/h
122 22-04-2015 10:05:00 8.2 C 6.7 g/m*3 5.55 C 16.1 km/h
123 22-04-2015 10:10:00 8.3 C 6.74 g/m*3 6.99 C 8.1 km/h
124 22-04-2015 10:15:00 8.5 C 6.83 g/m*3 6.36 C 12.9 km/h
125 22-04-2015 10:20:00 8.7 C 6.83 g/m*3 7.87 C 6.4 km/h
Sensor: Nr:Datum:Temp:Abs-Feuchte:Windchill:Wind:
Aussen-T/F 126 22-04-2015 10:25:00 8.7 C 6.75 g/m*3 7.13 C 9.7 km/h
127 22-04-2015 10:30:00 8.8 C 6.88 g/m*3 6.72 C 12.9 km/h
128 22-04-2015 10:35:00 8.9 C 6.83 g/m*3 6.85 C 12.9 km/h
129 22-04-2015 10:40:00 8.9 C 6.75 g/m*3 6.62 C 14.5 km/h
130 22-04-2015 10:45:00 9 C 6.79 g/m*3 7.21 C 11.3 km/h
131 22-04-2015 10:50:00 9.2 C 6.79 g/m*3 7.21 C 12.9 km/h
132 22-04-2015 10:55:00 9.3 C 6.92 g/m*3 8.16 C 8.1 km/h
133 22-04-2015 11:00:00 9.6 C 6.96 g/m*3 8.52 C 8.1 km/h
134 22-04-2015 11:05:00 9.8 C 7.14 g/m*3 8.75 C 8.1 km/h
135 22-04-2015 11:10:00 10 C 7.05 g/m*3 8.19 C 12.9 km/h
136 22-04-2015 11:15:00 10.1 C 6.9 g/m*3 8.1 C 14.5 km/h
137 22-04-2015 11:20:00 10.1 C 6.81 g/m*3 8.8 C 9.7 km/h
138 22-04-2015 11:25:00 10.2 C 6.95 g/m*3 8.22 C 14.5 km/h
139 22-04-2015 11:30:00 10.3 C 6.99 g/m*3 8.78 C 11.3 km/h
140 22-04-2015 11:35:00 10.4 C 6.75 g/m*3 8.9 C 11.3 km/h
141 22-04-2015 11:40:00 10.3 C 6.8 g/m*3 9.04 C 9.7 km/h
142 22-04-2015 11:45:00 10.4 C 6.84 g/m*3 8.67 C 12.9 km/h
143 22-04-2015 11:50:00 10.6 C 6.73 g/m*3 8.92 C 12.9 km/h
144 22-04-2015 11:55:00 10.6 C 6.73 g/m*3 10.06 C 6.4 km/h
145 22-04-2015 12:00:00 10.7 C 6.78 g/m*3 9.04 C 12.9 km/h
146 22-04-2015 12:05:00 10.8 C 6.72 g/m*3 9.38 C 11.3 km/h
147 22-04-2015 12:10:00 11.1 C 6.95 g/m*3 11.1 C 12.9 km/h
148 22-04-2015 12:15:00 11.3 C 6.73 g/m*3 11.3 C 12.9 km/h
149 22-04-2015 12:20:00 11.4 C 6.77 g/m*3 11.4 C 14.5 km/h
150 22-04-2015 12:25:00 11.6 C 6.96 g/m*3 11.6 C 11.3 km/h
Sensor: Nr:Datum:Temp:Abs-Feuchte:Windchill:Wind:
Aussen-T/F 151 22-04-2015 12:30:00 12 C 7.03 g/m*3 12 C 19.3 km/h
152 22-04-2015 12:35:00 12.3 C 6.95 g/m*3 12.3 C 17.7 km/h
153 22-04-2015 12:40:00 12.6 C 7.3 g/m*3 12.6 C 12.9 km/h
154 22-04-2015 12:45:00 12.8 C 6.83 g/m*3 12.8 C 11.3 km/h
155 22-04-2015 12:50:00 13 C 6.92 g/m*3 13 C 12.9 km/h
156 22-04-2015 12:55:00 13.3 C 7.05 g/m*3 13.3 C 12.9 km/h
157 22-04-2015 13:00:00 13.4 C 7.09 g/m*3 13.4 C 12.9 km/h
158 22-04-2015 13:05:00 13.3 C 7.05 g/m*3 13.3 C 14.5 km/h
159 22-04-2015 13:10:00 13.2 C 6.89 g/m*3 13.2 C 16.1 km/h
160 22-04-2015 13:15:00 13.3 C 7.16 g/m*3 13.3 C 19.3 km/h
161 22-04-2015 13:20:00 13.6 C 7.06 g/m*3 13.6 C 8.1 km/h
162 22-04-2015 13:25:00 13.7 C 6.87 g/m*3 13.7 C 11.3 km/h
163 22-04-2015 13:30:00 13.8 C 7.03 g/m*3 13.8 C 12.9 km/h
164 22-04-2015 13:35:00 14 C 6.88 g/m*3 14 C 14.5 km/h
165 22-04-2015 13:40:00 14.3 C 7.13 g/m*3 14.3 C 14.5 km/h
166 22-04-2015 13:45:00 14.4 C 6.92 g/m*3 14.4 C 14.5 km/h
167 22-04-2015 13:50:00 14.3 C 7 g/m*3 14.3 C 16.1 km/h
168 22-04-2015 13:55:00 13.8 C 6.67 g/m*3 13.8 C 19.3 km/h
169 22-04-2015 14:00:00 13.7 C 6.75 g/m*3 13.7 C 8.1 km/h
170 22-04-2015 14:05:00 14 C 7 g/m*3 14 C 11.3 km/h
171 22-04-2015 14:10:00 13.9 C 6.83 g/m*3 13.9 C 16.1 km/h
172 22-04-2015 14:15:00 13.9 C 6.95 g/m*3 13.9 C 12.9 km/h
173 22-04-2015 14:20:00 14.2 C 7.2 g/m*3 14.2 C 16.1 km/h
174 22-04-2015 14:25:00 14.4 C 7.17 g/m*3 14.4 C 11.3 km/h
175 22-04-2015 14:30:00 14.4 C 6.92 g/m*3 14.4 C 9.7 km/h
Sensor: Nr:Datum:Temp:Abs-Feuchte:Windchill:Wind:
Aussen-T/F 176 22-04-2015 14:35:00 14.5 C 7.21 g/m*3 14.5 C 11.3 km/h
177 22-04-2015 14:40:00 14.6 C 7.01 g/m*3 14.6 C 14.5 km/h
178 22-04-2015 14:45:00 14.7 C 7.18 g/m*3 14.7 C 12.9 km/h
179 22-04-2015 14:50:00 15 C 6.8 g/m*3 15 C 14.5 km/h
180 22-04-2015 14:55:00 14.9 C 7.01 g/m*3 14.9 C 12.9 km/h
181 22-04-2015 15:00:00 14.7 C 6.8 g/m*3 14.7 C 9.7 km/h
182 22-04-2015 15:05:00 14.4 C 7.05 g/m*3 14.4 C 8.1 km/h
183 22-04-2015 15:10:00 14.8 C 7.09 g/m*3 14.8 C 14.5 km/h
184 22-04-2015 15:15:00 15.1 C 6.84 g/m*3 15.1 C 12.9 km/h
185 22-04-2015 15:20:00 15 C 7.31 g/m*3 15 C 11.3 km/h
186 22-04-2015 15:25:00 15.2 C 7.01 g/m*3 15.2 C 11.3 km/h
187 22-04-2015 15:30:00 15.3 C 7.18 g/m*3 15.3 C 9.7 km/h
188 22-04-2015 15:35:00 15.4 C 7.23 g/m*3 15.4 C 14.5 km/h
189 22-04-2015 15:40:00 15.6 C 7.05 g/m*3 15.6 C 9.7 km/h
190 22-04-2015 15:45:00 15.8 C 7.54 g/m*3 15.8 C 17.7 km/h
191 22-04-2015 15:50:00 15.9 C 7.04 g/m*3 15.9 C 11.3 km/h
192 22-04-2015 15:55:00 15.9 C 7.31 g/m*3 15.9 C 11.3 km/h
193 22-04-2015 16:00:00 15.9 C 7.31 g/m*3 15.9 C 9.7 km/h
194 22-04-2015 16:05:00 15.9 C 7.18 g/m*3 15.9 C 11.3 km/h
195 22-04-2015 16:10:00 16 C 7.63 g/m*3 16 C 14.5 km/h
196 22-04-2015 16:15:00 16.3 C 7.08 g/m*3 16.3 C 11.3 km/h
197 22-04-2015 16:20:00 16.5 C 7.3 g/m*3 16.5 C 12.9 km/h
198 22-04-2015 16:25:00 16 C 6.95 g/m*3 16 C 14.5 km/h
199 22-04-2015 16:30:00 15.6 C 7.05 g/m*3 15.6 C 9.7 km/h
200 22-04-2015 16:35:00 15.6 C 7.05 g/m*3 15.6 C 11.3 km/h
Sensor: Nr:Datum:Temp:Abs-Feuchte:Windchill:Wind:
Aussen-T/F 201 22-04-2015 16:40:00 15.6 C 7.05 g/m*3 15.6 C 16.1 km/h
202 22-04-2015 16:45:00 15.9 C 7.31 g/m*3 15.9 C 16.1 km/h
203 22-04-2015 16:50:00 15.9 C 7.31 g/m*3 15.9 C 11.3 km/h
204 22-04-2015 16:55:00 16.2 C 7.58 g/m*3 16.2 C 12.9 km/h
205 22-04-2015 17:00:00 16.2 C 7.31 g/m*3 16.2 C 11.3 km/h
206 22-04-2015 17:05:00 16.2 C 7.45 g/m*3 16.2 C 9.7 km/h
207 22-04-2015 17:10:00 16.1 C 6.99 g/m*3 16.1 C 12.9 km/h
208 22-04-2015 17:15:00 16 C 7.08 g/m*3 16 C 9.7 km/h
209 22-04-2015 17:20:00 15.9 C 7.18 g/m*3 15.9 C 11.3 km/h
210 22-04-2015 17:25:00 15.9 C 7.31 g/m*3 15.9 C 9.7 km/h
211 22-04-2015 17:30:00 16.1 C 7.26 g/m*3 16.1 C 12.9 km/h
212 22-04-2015 17:35:00 16.4 C 7.12 g/m*3 16.4 C 12.9 km/h
213 22-04-2015 17:40:00 16.5 C 7.02 g/m*3 16.5 C 17.7 km/h
214 22-04-2015 17:45:00 16.6 C 7.35 g/m*3 16.6 C 14.5 km/h
215 22-04-2015 17:50:00 16.8 C 7.43 g/m*3 16.8 C 14.5 km/h
216 22-04-2015 17:55:00 16.9 C 7.19 g/m*3 16.9 C 9.7 km/h
217 22-04-2015 18:00:00 16.9 C 6.9 g/m*3 16.9 C 14.5 km/h
218 22-04-2015 18:05:00 16.9 C 6.9 g/m*3 16.9 C 8.1 km/h
219 22-04-2015 18:10:00 17 C 6.95 g/m*3 17 C 12.9 km/h
220 22-04-2015 18:15:00 16.9 C 7.05 g/m*3 16.9 C 12.9 km/h
221 22-04-2015 18:20:00 16.9 C 6.76 g/m*3 16.9 C 11.3 km/h
222 22-04-2015 18:25:00 16.9 C 6.76 g/m*3 16.9 C 11.3 km/h
223 22-04-2015 18:30:00 16.7 C 6.54 g/m*3 16.7 C 14.5 km/h
224 22-04-2015 18:35:00 16.3 C 6.66 g/m*3 16.3 C 14.5 km/h
225 22-04-2015 18:40:00 16.1 C 6.58 g/m*3 16.1 C 11.3 km/h
Sensor: Nr:Datum:Temp:Abs-Feuchte:Windchill:Wind:
Aussen-T/F 226 22-04-2015 18:45:00 15.9 C 6.5 g/m*3 15.9 C 9.7 km/h
227 22-04-2015 18:50:00 15.9 C 6.5 g/m*3 15.9 C 8.1 km/h
228 22-04-2015 18:55:00 15.9 C 6.64 g/m*3 15.9 C 11.3 km/h
229 22-04-2015 19:00:00 15.8 C 6.46 g/m*3 15.8 C 9.7 km/h
230 22-04-2015 19:05:00 15.6 C 6.65 g/m*3 15.6 C 8.1 km/h
231 22-04-2015 19:10:00 15.4 C 6.57 g/m*3 15.4 C 11.3 km/h
232 22-04-2015 19:15:00 15.2 C 6.49 g/m*3 15.2 C 11.3 km/h
233 22-04-2015 19:20:00 14.9 C 6.37 g/m*3 14.9 C 12.9 km/h
234 22-04-2015 19:25:00 14.5 C 6.34 g/m*3 14.5 C 11.3 km/h
235 22-04-2015 19:30:00 14.4 C 6.43 g/m*3 14.4 C 6.4 km/h
236 22-04-2015 19:35:00 14.3 C 6.27 g/m*3 14.3 C 9.7 km/h
237 22-04-2015 19:40:00 14.2 C 6.35 g/m*3 14.2 C 8.1 km/h
238 22-04-2015 19:45:00 13.9 C 6.23 g/m*3 13.9 C 9.7 km/h
239 22-04-2015 19:50:00 13.7 C 6.28 g/m*3 13.7 C 8.1 km/h
240 22-04-2015 19:55:00 13.6 C 6.47 g/m*3 13.6 C 8.1 km/h
241 22-04-2015 20:00:00 13.5 C 6.43 g/m*3 13.5 C 6.4 km/h
242 22-04-2015 20:05:00 13.4 C 6.28 g/m*3 13.4 C 6.4 km/h
243 22-04-2015 20:10:00 13.2 C 6.2 g/m*3 13.2 C 4.8 km/h
244 22-04-2015 20:15:00 12.9 C 5.97 g/m*3 12.9 C 9.7 km/h
245 22-04-2015 20:20:00 12.8 C 6.05 g/m*3 12.8 C 4.8 km/h
246 22-04-2015 20:25:00 12.6 C 6.2 g/m*3 12.6 C 1.6 km/h
247 22-04-2015 20:30:00 12.3 C 6.19 g/m*3 12.3 C 1.6 km/h
248 22-04-2015 20:35:00 12.1 C 6.33 g/m*3 12.1 C 1.6 km/h
249 22-04-2015 20:40:00 11.7 C 6.38 g/m*3 11.7 C 1.6 km/h
250 22-04-2015 20:45:00 11.1 C 6.35 g/m*3 11.1 C 3.2 km/h
Sensor: Nr:Datum:Temp:Abs-Feuchte:Windchill:Wind:
Aussen-T/F 251 22-04-2015 20:50:00 10.5 C 6.3 g/m*3 10.5 C 3.2 km/h
252 22-04-2015 20:55:00 10.2 C 6.38 g/m*3 10.2 C 4.8 km/h
253 22-04-2015 21:00:00 9.9 C 6.35 g/m*3 9.9 C 3.2 km/h
254 22-04-2015 21:05:00 9.8 C 6.4 g/m*3 9.8 C 4.8 km/h
255 22-04-2015 21:10:00 9.6 C 6.41 g/m*3 9.6 C 4.8 km/h
256 22-04-2015 21:15:00 9.5 C 6.46 g/m*3 9.5 C 4.8 km/h
257 22-04-2015 21:20:00 9.3 C 6.38 g/m*3 9.3 C 4.8 km/h
258 22-04-2015 21:25:00 9.2 C 6.43 g/m*3 9.2 C 4.8 km/h
259 22-04-2015 21:30:00 9.1 C 6.48 g/m*3 9.1 C 1.6 km/h
260 22-04-2015 21:35:00 9 C 6.44 g/m*3 9 C 3.2 km/h
261 22-04-2015 21:40:00 8.9 C 6.39 g/m*3 8.9 C 3.2 km/h
262 22-04-2015 21:45:00 8.8 C 6.44 g/m*3 8.8 C 4.8 km/h
263 22-04-2015 21:50:00 8.8 C 6.44 g/m*3 8.8 C 4.8 km/h
264 22-04-2015 21:55:00 8.7 C 6.4 g/m*3 8.7 C 3.2 km/h
265 22-04-2015 22:00:00 8.6 C 6.53 g/m*3 8.6 C 1.6 km/h
266 22-04-2015 22:05:00 8.6 C 6.44 g/m*3 8.6 C 1.6 km/h
267 22-04-2015 22:10:00 8.4 C 6.36 g/m*3 8.4 C 3.2 km/h
268 22-04-2015 22:15:00 8.3 C 6.49 g/m*3 8.3 C 0 km/h
269 22-04-2015 22:20:00 8.3 C 6.49 g/m*3 8.3 C 0 km/h
270 22-04-2015 22:25:00 8.2 C 6.45 g/m*3 8.2 C 0 km/h
271 22-04-2015 22:30:00 8.1 C 6.49 g/m*3 8.1 C 0 km/h
272 22-04-2015 22:35:00 8 C 6.45 g/m*3 8 C 0 km/h
273 22-04-2015 22:40:00 7.9 C 6.41 g/m*3 7.9 C 0 km/h
274 22-04-2015 22:45:00 7.8 C 6.37 g/m*3 7.8 C 0 km/h
275 22-04-2015 22:50:00 7.7 C 6.41 g/m*3 7.7 C 0 km/h
Sensor: Nr:Datum:Temp:Abs-Feuchte:Windchill:Wind:
Aussen-T/F 276 22-04-2015 22:55:00 7.6 C 6.36 g/m*3 7.6 C 0 km/h
277 22-04-2015 23:00:00 7.6 C 6.36 g/m*3 7.6 C 0 km/h
278 22-04-2015 23:05:00 7.5 C 6.32 g/m*3 7.5 C 0 km/h
279 22-04-2015 23:10:00 7.3 C 6.24 g/m*3 7.3 C 0 km/h
280 22-04-2015 23:15:00 7.2 C 6.28 g/m*3 7.2 C 0 km/h
281 22-04-2015 23:20:00 7.2 C 6.28 g/m*3 7.2 C 0 km/h
282 22-04-2015 23:25:00 7 C 6.2 g/m*3 7 C 0 km/h
283 22-04-2015 23:30:00 6.9 C 6.24 g/m*3 6.9 C 0 km/h
284 22-04-2015 23:35:00 6.8 C 6.27 g/m*3 6.8 C 0 km/h
285 22-04-2015 23:40:00 6.8 C 6.27 g/m*3 6.8 C 1.6 km/h
286 22-04-2015 23:45:00 6.8 C 6.27 g/m*3 6.8 C 0 km/h
287 22-04-2015 23:50:00 6.7 C 6.15 g/m*3 6.7 C 0 km/h
288 22-04-2015 23:55:00 6.6 C 6.11 g/m*3 6.6 C 0 km/h

Legende:
   Min
   Max


Maximal/Minimal-Werte vom 22.04.2015 - 22.04.2015

Sensor Min Max Avg
Temp
(Aussen-T/F)
6.3 °C
22-04-2015  06:55:00
17 °C
22-04-2015  18:10:00
10.77 °C
Abs-Feuchte
(Aussen-T/F)
5.97 g/m*3
22-04-2015  20:15:00
7.63 g/m*3
22-04-2015  16:10:00
6.7 g/m*3
Windchill
(Aussen-T/F)
3.8 C
22-04-2015  07:20:00
17 C
22-04-2015  18:10:00
10.4 C

Die Daten stammen von einer Davis Vantage Pro 2 Wetter-Station und werden unter Linux mit der Software wview2wettercgi und aufbereitet. Alle Angaben erfolgen ohne Gewähr für ihre Vollständigkeit oder Richtigkeit.
Kontakt: Rainer Krienke krienke@uni-koblenz.de . Meine Webseiten an der Uni Koblenz oder privat.
Version: $Revision: 0.78 $